LZB978 LBWN-LBSF

Flight info

Callsign LZB978
Flight time N/A
Altitude 26000
Route DICXA T343 UMPIT
Aircraft A320/M-SDE3FGHIRWY/LB1

Departure

Time 2026-05-05 15:23
Airport Varna Airport (LBWN)

Arrival

Time N/A
Airport Sofia Airport (LBSF)
Time Latitude Longitude Altitude Speed Heading
2026-05-05 15:22 43.23072 27.83895 233 ft 0 kts 275°
2026-05-05 15:22 43.23078 27.83830 234 ft 32 kts 278°
2026-05-05 15:22 43.23132 27.83178 243 ft 104 kts 278°
2026-05-05 15:23 43.23250 27.81886 228 ft 165 kts 275°
2026-05-05 15:23 43.23393 27.80279 822 ft 163 kts 277°
2026-05-05 15:23 43.23489 27.78736 1398 ft 170 kts 274°
2026-05-05 15:23 43.23603 27.77110 2024 ft 174 kts 276°
2026-05-05 15:24 43.23574 27.75388 2499 ft 187 kts 262°
2026-05-05 15:24 43.23325 27.73564 2926 ft 203 kts 259°
2026-05-05 15:24 43.23025 27.71602 3351 ft 220 kts 260°
2026-05-05 15:24 43.22719 27.69476 3740 ft 240 kts 261°
2026-05-05 15:25 43.22405 27.67165 4331 ft 252 kts 262°
2026-05-05 15:25 43.22095 27.64814 5171 ft 254 kts 263°
2026-05-05 15:25 43.21783 27.62387 5857 ft 263 kts 264°
2026-05-05 15:25 43.21464 27.59848 6396 ft 279 kts 265°
2026-05-05 15:26 43.21136 27.57196 7196 ft 284 kts 264°
2026-05-05 15:26 43.20807 27.54552 8035 ft 288 kts 265°
2026-05-05 15:26 43.20469 27.51835 8852 ft 293 kts 265°
2026-05-05 15:26 43.20127 27.49081 9640 ft 298 kts 265°
2026-05-05 15:27 43.19776 27.46258 10380 ft 304 kts 265°
2026-05-05 15:27 43.19413 27.43318 10872 ft 320 kts 265°
2026-05-05 15:27 43.19022 27.40162 11264 ft 339 kts 265°
2026-05-05 15:27 43.18619 27.36930 11621 ft 357 kts 265°
2026-05-05 15:28 43.18192 27.33521 12054 ft 371 kts 264°
2026-05-05 15:28 43.17750 27.30016 12725 ft 377 kts 264°
2026-05-05 15:28 43.17296 27.26440 13459 ft 380 kts 264°
2026-05-05 15:28 43.16843 27.22871 14165 ft 384 kts 264°
2026-05-05 15:29 43.16385 27.19266 14848 ft 388 kts 264°
2026-05-05 15:29 43.15921 27.15629 15532 ft 391 kts 264°
2026-05-05 15:29 43.15449 27.11935 16208 ft 394 kts 263°
2026-05-05 15:29 43.14975 27.08233 16875 ft 397 kts 264°
2026-05-05 15:30 43.14497 27.04503 17514 ft 401 kts 264°
2026-05-05 15:30 43.14011 27.00732 18120 ft 405 kts 264°
2026-05-05 15:30 43.13524 26.96935 18728 ft 408 kts 263°
2026-05-05 15:30 43.13034 26.93139 19324 ft 411 kts 263°
2026-05-05 15:31 43.12537 26.89303 19922 ft 413 kts 263°
2026-05-05 15:31 43.12035 26.85433 20491 ft 417 kts 263°
2026-05-05 15:31 43.11521 26.81496 21037 ft 420 kts 263°
2026-05-05 15:31 43.11011 26.77590 21582 ft 423 kts 263°
2026-05-05 15:32 43.10494 26.73641 22131 ft 425 kts 263°
2026-05-05 15:32 43.09970 26.69659 22668 ft 428 kts 263°
2026-05-05 15:32 43.09437 26.65622 23195 ft 431 kts 263°
2026-05-05 15:32 43.08905 26.61602 23703 ft 433 kts 262°
2026-05-05 15:33 43.08371 26.57573 24193 ft 436 kts 262°
2026-05-05 15:33 43.07833 26.53528 24656 ft 439 kts 262°
2026-05-05 15:33 43.07277 26.49371 25095 ft 442 kts 263°
2026-05-05 15:33 43.06723 26.45224 25532 ft 445 kts 262°
2026-05-05 15:34 43.06163 26.41057 25929 ft 448 kts 263°
2026-05-05 15:34 43.05602 26.36890 26015 ft 449 kts 263°
2026-05-05 15:34 43.05037 26.32705 26025 ft 448 kts 262°
2026-05-05 15:34 43.04470 26.28509 26029 ft 448 kts 262°
2026-05-05 15:35 43.03912 26.24374 26030 ft 448 kts 262°
2026-05-05 15:35 43.03341 26.20174 26032 ft 448 kts 262°
2026-05-05 15:35 43.02775 26.16027 26034 ft 447 kts 263°
2026-05-05 15:35 43.02205 26.11849 26032 ft 448 kts 262°
2026-05-05 15:36 43.01633 26.07675 26032 ft 447 kts 262°
2026-05-05 15:36 43.01054 26.03464 26031 ft 446 kts 263°
2026-05-05 15:36 43.00487 25.99357 26028 ft 445 kts 263°
2026-05-05 15:36 42.99908 25.95172 26024 ft 445 kts 263°
2026-05-05 15:37 42.99340 25.91080 26022 ft 444 kts 263°
2026-05-05 15:37 42.98763 25.86943 26021 ft 444 kts 263°
2026-05-05 15:37 42.98188 25.82815 26022 ft 444 kts 263°
2026-05-05 15:37 42.97611 25.78689 26017 ft 444 kts 263°
2026-05-05 15:38 42.97024 25.74504 26019 ft 444 kts 263°
2026-05-05 15:38 42.96458 25.70478 26017 ft 444 kts 263°
2026-05-05 15:38 42.95873 25.66331 26017 ft 444 kts 263°
2026-05-05 15:38 42.95288 25.62192 26022 ft 444 kts 263°
2026-05-05 15:39 42.94700 25.58039 26023 ft 444 kts 263°
2026-05-05 15:39 42.94118 25.53952 26022 ft 444 kts 263°
2026-05-05 15:39 42.93527 25.49803 26025 ft 443 kts 263°